Airfield :
LOGIN :

Register | Disclaimer

   EN    FR    IT 

 










Legend :    VFR   Marginal VFR   IFR   Intensive IFR   Very Intensive IFR
Visi :
Ceiling :
>= 8 km
>= 3000ft
5 to 8 km
1000 to 3000 ft
1500m to 5 km
500 to 1000 ft
800 to 1500m
200 to 500 ft
< 800m
< 200 ft
Symbols :   Thunderstorms  Fog  Heavy snow  Heavy precipitations  Wind > 20 kt
SIGMETs :     Misc.  Thunderstorms  Icing  Turbulence  Mountain Waves  Volcanic Ashes







- Airport Elevation : 100 ft


EBDT - Schaffen

CURRENT METAR :
  • 220255Z AUTO 25008KT 9999 NCD 09/06 Q1026 BLU

EXPIRED METARs :
  • 220225Z AUTO 26007KT 9999 NCD 09/06 Q1026 BLU
  • 220155Z AUTO 26008KT 9999 NCD 09/06 Q1026 BLU
  • 220125Z AUTO 26008KT 9999 FEW042/// 09/06 Q1026 BLU
  • 220055Z AUTO 26007KT 9999 FEW065/// 09/06 Q1026 BLU
  • 220025Z AUTO 26007KT 9999 NCD 09/06 Q1026 BLU

TAF TAF EBDT
Valid from the 21 at 19:00 until the 22 at 07:00 UTC


211541Z 2119/2207 33012G19KT 9999 SCT040
TEMPO 2119/2121 33016G25KT
BECMG 2123/2124 28008G15KT
No reported NOTAMs for that airfield.



MET'MAP, your aeronautical weather chart ! - Copyright ORBIFLY December 2007 - Disclaimer

ORBIFLY MET'MAP TEAM :

Programming & Development : Alexandra Zaïnal
Concept & Development : Baudouin d'Aumeries
Co-Development & Prog : Marc-Olivier Méhu
Technical & hardware support : Manuel Goepfert

Contact : metmap@orbifly.com




SOURCES & CREDITS :

   NOAA